sensor_id;sensor_type;location;lat;lon;timestamp;P1;durP1;ratioP1;P2;durP2;ratioP2
50219;SDS011;36110;51.536;7.562;2023-04-01T00:01:42;0.77;;;0.70;;
50219;SDS011;36110;51.536;7.562;2023-04-01T00:04:07;3.13;;;1.00;;
50219;SDS011;36110;51.536;7.562;2023-04-01T00:06:32;1.45;;;0.88;;
50219;SDS011;36110;51.536;7.562;2023-04-01T00:08:58;1.73;;;0.70;;
50219;SDS011;36110;51.536;7.562;2023-04-01T00:11:39;1.92;;;0.88;;
50219;SDS011;36110;51.536;7.562;2023-04-01T00:14:05;5.15;;;0.95;;
50219;SDS011;36110;51.536;7.562;2023-04-01T00:16:31;1.17;;;0.70;;
50219;SDS011;36110;51.536;7.562;2023-04-01T00:18:56;2.85;;;1.02;;
50219;SDS011;36110;51.536;7.562;2023-04-01T00:21:21;1.73;;;0.98;;
50219;SDS011;36110;51.536;7.562;2023-04-01T00:23:47;3.50;;;1.42;;
50219;SDS011;36110;51.536;7.562;2023-04-01T00:26:14;2.35;;;0.70;;
50219;SDS011;36110;51.536;7.562;2023-04-01T00:28:44;2.00;;;0.80;;
50219;SDS011;36110;51.536;7.562;2023-04-01T00:31:10;2.22;;;0.80;;
50219;SDS011;36110;51.536;7.562;2023-04-01T00:33:36;0.93;;;0.68;;
50219;SDS011;36110;51.536;7.562;2023-04-01T00:36:35;1.27;;;0.95;;
50219;SDS011;36110;51.536;7.562;2023-04-01T00:38:53;3.92;;;0.90;;
50219;SDS011;36110;51.536;7.562;2023-04-01T00:41:19;0.98;;;0.77;;
50219;SDS011;36110;51.536;7.562;2023-04-01T00:43:46;1.92;;;0.80;;
50219;SDS011;36110;51.536;7.562;2023-04-01T00:46:13;1.98;;;0.77;;
50219;SDS011;36110;51.536;7.562;2023-04-01T00:48:40;1.45;;;1.02;;
50219;SDS011;36110;51.536;7.562;2023-04-01T00:51:09;0.73;;;0.60;;
50219;SDS011;36110;51.536;7.562;2023-04-01T00:53:56;0.90;;;0.77;;
50219;SDS011;36110;51.536;7.562;2023-04-01T00:56:43;1.23;;;0.68;;
50219;SDS011;36110;51.536;7.562;2023-04-01T00:59:14;3.20;;;0.70;;
50219;SDS011;36110;51.536;7.562;2023-04-01T01:01:43;1.25;;;0.70;;
50219;SDS011;36110;51.536;7.562;2023-04-01T01:04:25;2.00;;;0.70;;
50219;SDS011;36110;51.536;7.562;2023-04-01T01:09:42;1.30;;;0.80;;
50219;SDS011;36110;51.536;7.562;2023-04-01T01:12:11;2.70;;;0.70;;
50219;SDS011;36110;51.536;7.562;2023-04-01T01:14:48;3.85;;;0.90;;
50219;SDS011;36110;51.536;7.562;2023-04-01T01:28:24;1.58;;;0.73;;
50219;SDS011;36110;51.536;7.562;2023-04-01T01:36:22;3.85;;;0.77;;
50219;SDS011;36110;51.536;7.562;2023-04-01T01:38:51;0.60;;;0.60;;
50219;SDS011;36110;51.536;7.562;2023-04-01T01:41:16;1.00;;;0.60;;
50219;SDS011;36110;51.536;7.562;2023-04-01T01:43:43;1.05;;;0.70;;
50219;SDS011;36110;51.536;7.562;2023-04-01T01:46:13;0.70;;;0.70;;
50219;SDS011;36110;51.536;7.562;2023-04-01T01:48:41;0.70;;;0.70;;
50219;SDS011;36110;51.536;7.562;2023-04-01T01:51:07;1.55;;;0.63;;
50219;SDS011;36110;51.536;7.562;2023-04-01T01:53:33;1.20;;;0.70;;
50219;SDS011;36110;51.536;7.562;2023-04-01T01:55:58;1.83;;;0.90;;
50219;SDS011;36110;51.536;7.562;2023-04-01T02:01:06;2.72;;;0.80;;
50219;SDS011;36110;51.536;7.562;2023-04-01T02:03:34;1.52;;;0.75;;
50219;SDS011;36110;51.536;7.562;2023-04-01T02:06:02;0.93;;;0.80;;
50219;SDS011;36110;51.536;7.562;2023-04-01T02:09:15;2.05;;;0.63;;
50219;SDS011;36110;51.536;7.562;2023-04-01T02:11:28;1.17;;;0.77;;
50219;SDS011;36110;51.536;7.562;2023-04-01T02:14:01;2.38;;;0.90;;
50219;SDS011;36110;51.536;7.562;2023-04-01T02:16:29;2.17;;;1.15;;
50219;SDS011;36110;51.536;7.562;2023-04-01T02:18:57;2.17;;;0.60;;
50219;SDS011;36110;51.536;7.562;2023-04-01T02:21:24;1.30;;;0.85;;
50219;SDS011;36110;51.536;7.562;2023-04-01T02:23:51;2.08;;;0.75;;
50219;SDS011;36110;51.536;7.562;2023-04-01T02:26:17;1.40;;;0.65;;
50219;SDS011;36110;51.536;7.562;2023-04-01T02:28:43;1.38;;;0.77;;
50219;SDS011;36110;51.536;7.562;2023-04-01T02:31:10;1.13;;;0.60;;
50219;SDS011;36110;51.536;7.562;2023-04-01T02:33:36;0.65;;;0.60;;
50219;SDS011;36110;51.536;7.562;2023-04-01T02:36:03;0.50;;;0.50;;
50219;SDS011;36110;51.536;7.562;2023-04-01T02:38:29;1.05;;;0.70;;
50219;SDS011;36110;51.536;7.562;2023-04-01T02:40:59;1.77;;;0.70;;
50219;SDS011;36110;51.536;7.562;2023-04-01T02:43:25;1.95;;;0.60;;
50219;SDS011;36110;51.536;7.562;2023-04-01T02:45:50;0.68;;;0.68;;
50219;SDS011;36110;51.536;7.562;2023-04-01T02:48:15;0.77;;;0.43;;
50219;SDS011;36110;51.536;7.562;2023-04-01T02:50:41;1.58;;;0.50;;
50219;SDS011;36110;51.536;7.562;2023-04-01T02:53:06;1.48;;;0.70;;
50219;SDS011;36110;51.536;7.562;2023-04-01T02:55:32;1.70;;;0.70;;
50219;SDS011;36110;51.536;7.562;2023-04-01T02:57:58;0.70;;;0.63;;
50219;SDS011;36110;51.536;7.562;2023-04-01T03:00:23;1.42;;;0.60;;
50219;SDS011;36110;51.536;7.562;2023-04-01T03:02:49;0.68;;;0.60;;
50219;SDS011;36110;51.536;7.562;2023-04-01T03:05:15;1.70;;;0.55;;
50219;SDS011;36110;51.536;7.562;2023-04-01T03:07:40;1.67;;;0.60;;
50219;SDS011;36110;51.536;7.562;2023-04-01T03:10:06;0.80;;;0.60;;
50219;SDS011;36110;51.536;7.562;2023-04-01T03:12:32;0.45;;;0.40;;
50219;SDS011;36110;51.536;7.562;2023-04-01T03:14:57;1.70;;;0.60;;
50219;SDS011;36110;51.536;7.562;2023-04-01T03:17:22;1.13;;;1.10;;
50219;SDS011;36110;51.536;7.562;2023-04-01T03:20:00;0.88;;;0.47;;
50219;SDS011;36110;51.536;7.562;2023-04-01T03:22:25;0.55;;;0.47;;
50219;SDS011;36110;51.536;7.562;2023-04-01T03:24:50;0.85;;;0.57;;
50219;SDS011;36110;51.536;7.562;2023-04-01T03:27:16;0.70;;;0.70;;
50219;SDS011;36110;51.536;7.562;2023-04-01T03:29:41;1.00;;;0.57;;
50219;SDS011;36110;51.536;7.562;2023-04-01T03:32:06;0.47;;;0.43;;
50219;SDS011;36110;51.536;7.562;2023-04-01T03:34:32;1.55;;;0.50;;
50219;SDS011;36110;51.536;7.562;2023-04-01T03:36:57;1.25;;;0.50;;
50219;SDS011;36110;51.536;7.562;2023-04-01T03:39:23;0.63;;;0.40;;
50219;SDS011;36110;51.536;7.562;2023-04-01T03:41:49;2.33;;;0.70;;
50219;SDS011;36110;51.536;7.562;2023-04-01T03:44:14;1.85;;;0.40;;
50219;SDS011;36110;51.536;7.562;2023-04-01T03:46:39;1.20;;;0.50;;
50219;SDS011;36110;51.536;7.562;2023-04-01T03:49:08;0.98;;;0.77;;
50219;SDS011;36110;51.536;7.562;2023-04-01T03:51:41;1.92;;;0.52;;
50219;SDS011;36110;51.536;7.562;2023-04-01T03:54:07;1.80;;;0.52;;
50219;SDS011;36110;51.536;7.562;2023-04-01T03:56:33;1.88;;;0.52;;
50219;SDS011;36110;51.536;7.562;2023-04-01T03:59:01;1.52;;;0.50;;
50219;SDS011;36110;51.536;7.562;2023-04-01T04:01:27;0.50;;;0.50;;
50219;SDS011;36110;51.536;7.562;2023-04-01T04:03:53;3.17;;;0.80;;
50219;SDS011;36110;51.536;7.562;2023-04-01T04:06:18;1.95;;;0.80;;
50219;SDS011;36110;51.536;7.562;2023-04-01T04:08:44;0.52;;;0.50;;
50219;SDS011;36110;51.536;7.562;2023-04-01T04:11:09;1.17;;;0.60;;
50219;SDS011;36110;51.536;7.562;2023-04-01T04:13:35;0.60;;;0.60;;
50219;SDS011;36110;51.536;7.562;2023-04-01T04:16:01;0.50;;;0.50;;
50219;SDS011;36110;51.536;7.562;2023-04-01T04:18:30;0.75;;;0.60;;
50219;SDS011;36110;51.536;7.562;2023-04-01T04:20:55;0.85;;;0.38;;
50219;SDS011;36110;51.536;7.562;2023-04-01T04:23:21;0.55;;;0.55;;
50219;SDS011;36110;51.536;7.562;2023-04-01T04:25:56;0.43;;;0.40;;
50219;SDS011;36110;51.536;7.562;2023-04-01T04:28:23;2.05;;;0.50;;
50219;SDS011;36110;51.536;7.562;2023-04-01T04:30:49;0.65;;;0.63;;
50219;SDS011;36110;51.536;7.562;2023-04-01T04:33:14;0.75;;;0.50;;
50219;SDS011;36110;51.536;7.562;2023-04-01T04:35:40;0.85;;;0.63;;
50219;SDS011;36110;51.536;7.562;2023-04-01T04:38:05;0.52;;;0.40;;
50219;SDS011;36110;51.536;7.562;2023-04-01T04:40:30;0.55;;;0.55;;
50219;SDS011;36110;51.536;7.562;2023-04-01T04:42:56;1.00;;;0.57;;
50219;SDS011;36110;51.536;7.562;2023-04-01T04:45:21;0.50;;;0.50;;
50219;SDS011;36110;51.536;7.562;2023-04-01T04:47:46;0.50;;;0.50;;
50219;SDS011;36110;51.536;7.562;2023-04-01T04:50:12;1.15;;;0.70;;
50219;SDS011;36110;51.536;7.562;2023-04-01T04:52:37;1.98;;;0.52;;
50219;SDS011;36110;51.536;7.562;2023-04-01T04:55:03;0.93;;;0.57;;
50219;SDS011;36110;51.536;7.562;2023-04-01T04:57:29;1.85;;;0.80;;
50219;SDS011;36110;51.536;7.562;2023-04-01T04:59:54;1.27;;;0.68;;
50219;SDS011;36110;51.536;7.562;2023-04-01T05:02:20;0.73;;;0.50;;
50219;SDS011;36110;51.536;7.562;2023-04-01T05:04:45;0.47;;;0.47;;
50219;SDS011;36110;51.536;7.562;2023-04-01T05:07:10;0.32;;;0.32;;
50219;SDS011;36110;51.536;7.562;2023-04-01T05:09:36;1.00;;;0.75;;
50219;SDS011;36110;51.536;7.562;2023-04-01T05:12:01;1.20;;;1.02;;
50219;SDS011;36110;51.536;7.562;2023-04-01T05:14:27;0.68;;;0.63;;
50219;SDS011;36110;51.536;7.562;2023-04-01T05:16:52;0.73;;;0.50;;
50219;SDS011;36110;51.536;7.562;2023-04-01T05:19:19;3.03;;;1.13;;
50219;SDS011;36110;51.536;7.562;2023-04-01T05:21:44;0.85;;;0.85;;
50219;SDS011;36110;51.536;7.562;2023-04-01T05:24:10;1.13;;;0.52;;
50219;SDS011;36110;51.536;7.562;2023-04-01T05:26:35;3.53;;;0.75;;
50219;SDS011;36110;51.536;7.562;2023-04-01T05:29:01;2.53;;;0.90;;
50219;SDS011;36110;51.536;7.562;2023-04-01T05:31:27;0.70;;;0.70;;
50219;SDS011;36110;51.536;7.562;2023-04-01T05:33:53;1.48;;;0.70;;
50219;SDS011;36110;51.536;7.562;2023-04-01T05:36:19;0.57;;;0.57;;
50219;SDS011;36110;51.536;7.562;2023-04-01T05:38:44;1.13;;;0.73;;
50219;SDS011;36110;51.536;7.562;2023-04-01T05:41:11;1.15;;;0.60;;
50219;SDS011;36110;51.536;7.562;2023-04-01T05:43:37;2.05;;;0.75;;
50219;SDS011;36110;51.536;7.562;2023-04-01T05:46:03;0.98;;;0.70;;
50219;SDS011;36110;51.536;7.562;2023-04-01T05:48:28;0.70;;;0.70;;
50219;SDS011;36110;51.536;7.562;2023-04-01T05:50:53;0.80;;;0.80;;
50219;SDS011;36110;51.536;7.562;2023-04-01T05:53:19;0.60;;;0.60;;
50219;SDS011;36110;51.536;7.562;2023-04-01T05:55:44;0.57;;;0.57;;
50219;SDS011;36110;51.536;7.562;2023-04-01T05:58:10;0.73;;;0.73;;
50219;SDS011;36110;51.536;7.562;2023-04-01T06:00:35;0.80;;;0.80;;
50219;SDS011;36110;51.536;7.562;2023-04-01T06:03:00;0.60;;;0.60;;
50219;SDS011;36110;51.536;7.562;2023-04-01T06:05:29;1.98;;;0.77;;
50219;SDS011;36110;51.536;7.562;2023-04-01T06:08:00;1.45;;;0.80;;
50219;SDS011;36110;51.536;7.562;2023-04-01T06:11:01;0.63;;;0.60;;
50219;SDS011;36110;51.536;7.562;2023-04-01T06:13:35;0.80;;;0.80;;
50219;SDS011;36110;51.536;7.562;2023-04-01T06:24:40;1.27;;;0.63;;
50219;SDS011;36110;51.536;7.562;2023-04-01T06:32:45;0.50;;;0.50;;
50219;SDS011;36110;51.536;7.562;2023-04-01T06:42:45;0.40;;;0.40;;
50219;SDS011;36110;51.536;7.562;2023-04-01T06:45:41;0.38;;;0.38;;
50219;SDS011;36110;51.536;7.562;2023-04-01T06:48:25;0.60;;;0.60;;
50219;SDS011;36110;51.536;7.562;2023-04-01T06:51:22;0.52;;;0.52;;
50219;SDS011;36110;51.536;7.562;2023-04-01T06:54:06;1.17;;;0.70;;
50219;SDS011;36110;51.536;7.562;2023-04-01T06:56:36;1.52;;;0.70;;
50219;SDS011;36110;51.536;7.562;2023-04-01T06:59:04;0.77;;;0.70;;
50219;SDS011;36110;51.536;7.562;2023-04-01T07:01:37;0.60;;;0.60;;
50219;SDS011;36110;51.536;7.562;2023-04-01T07:04:14;0.50;;;0.50;;
50219;SDS011;36110;51.536;7.562;2023-04-01T07:09:21;0.60;;;0.60;;
50219;SDS011;36110;51.536;7.562;2023-04-01T07:11:49;0.77;;;0.63;;
50219;SDS011;36110;51.536;7.562;2023-04-01T07:14:26;0.40;;;0.40;;
50219;SDS011;36110;51.536;7.562;2023-04-01T07:17:08;1.13;;;0.60;;
50219;SDS011;36110;51.536;7.562;2023-04-01T07:19:39;3.63;;;0.50;;
50219;SDS011;36110;51.536;7.562;2023-04-01T07:24:42;1.15;;;0.63;;
50219;SDS011;36110;51.536;7.562;2023-04-01T07:27:10;0.38;;;0.38;;
50219;SDS011;36110;51.536;7.562;2023-04-01T07:29:46;0.40;;;0.40;;
50219;SDS011;36110;51.536;7.562;2023-04-01T07:35:45;0.40;;;0.40;;
50219;SDS011;36110;51.536;7.562;2023-04-01T07:39:12;0.95;;;0.70;;
50219;SDS011;36110;51.536;7.562;2023-04-01T07:44:37;0.85;;;0.70;;
50219;SDS011;36110;51.536;7.562;2023-04-01T07:55:34;0.80;;;0.80;;
50219;SDS011;36110;51.536;7.562;2023-04-01T07:58:17;0.65;;;0.65;;
50219;SDS011;36110;51.536;7.562;2023-04-01T08:00:58;0.60;;;0.60;;
50219;SDS011;36110;51.536;7.562;2023-04-01T08:06:00;0.73;;;0.68;;
50219;SDS011;36110;51.536;7.562;2023-04-01T08:08:43;0.63;;;0.63;;
50219;SDS011;36110;51.536;7.562;2023-04-01T08:16:52;2.58;;;1.10;;
50219;SDS011;36110;51.536;7.562;2023-04-01T08:22:29;2.83;;;0.82;;
50219;SDS011;36110;51.536;7.562;2023-04-01T08:24:59;0.90;;;0.90;;
50219;SDS011;36110;51.536;7.562;2023-04-01T08:27:37;0.90;;;0.90;;
50219;SDS011;36110;51.536;7.562;2023-04-01T08:30:33;1.13;;;1.02;;
50219;SDS011;36110;51.536;7.562;2023-04-01T08:33:13;2.38;;;0.90;;
50219;SDS011;36110;51.536;7.562;2023-04-01T08:35:44;1.05;;;0.95;;
50219;SDS011;36110;51.536;7.562;2023-04-01T08:38:12;1.00;;;1.00;;
50219;SDS011;36110;51.536;7.562;2023-04-01T08:46:28;2.40;;;0.93;;
50219;SDS011;36110;51.536;7.562;2023-04-01T08:49:08;1.15;;;0.90;;
50219;SDS011;36110;51.536;7.562;2023-04-01T08:54:27;1.10;;;1.00;;
50219;SDS011;36110;51.536;7.562;2023-04-01T08:57:15;1.45;;;1.00;;
50219;SDS011;36110;51.536;7.562;2023-04-01T08:59:55;1.00;;;1.00;;
50219;SDS011;36110;51.536;7.562;2023-04-01T09:02:43;0.80;;;0.80;;
50219;SDS011;36110;51.536;7.562;2023-04-01T09:10:35;1.48;;;1.38;;
50219;SDS011;36110;51.536;7.562;2023-04-01T09:13:37;1.30;;;1.20;;
50219;SDS011;36110;51.536;7.562;2023-04-01T09:16:21;1.77;;;1.20;;
50219;SDS011;36110;51.536;7.562;2023-04-01T09:21:49;1.70;;;1.45;;
50219;SDS011;36110;51.536;7.562;2023-04-01T09:27:40;1.63;;;1.20;;
50219;SDS011;36110;51.536;7.562;2023-04-01T09:30:17;2.05;;;1.85;;
50219;SDS011;36110;51.536;7.562;2023-04-01T09:35:56;1.95;;;1.70;;
50219;SDS011;36110;51.536;7.562;2023-04-01T09:38:30;2.10;;;1.80;;
50219;SDS011;36110;51.536;7.562;2023-04-01T09:44:03;2.03;;;1.90;;
50219;SDS011;36110;51.536;7.562;2023-04-01T09:56:18;2.35;;;2.00;;
50219;SDS011;36110;51.536;7.562;2023-04-01T09:58:54;2.40;;;2.20;;
50219;SDS011;36110;51.536;7.562;2023-04-01T10:01:42;2.28;;;1.92;;
50219;SDS011;36110;51.536;7.562;2023-04-01T10:07:04;2.00;;;1.90;;
50219;SDS011;36110;51.536;7.562;2023-04-01T10:10:01;2.15;;;1.95;;
50219;SDS011;36110;51.536;7.562;2023-04-01T10:15:45;2.25;;;2.05;;
50219;SDS011;36110;51.536;7.562;2023-04-01T10:43:42;2.03;;;1.83;;
50219;SDS011;36110;51.536;7.562;2023-04-01T10:49:31;5.53;;;2.67;;
50219;SDS011;36110;51.536;7.562;2023-04-01T10:57:40;2.92;;;2.72;;
50219;SDS011;36110;51.536;7.562;2023-04-01T11:08:49;2.72;;;2.17;;
50219;SDS011;36110;51.536;7.562;2023-04-01T11:20:27;2.90;;;2.60;;
50219;SDS011;36110;51.536;7.562;2023-04-01T11:25:53;2.38;;;2.13;;
50219;SDS011;36110;51.536;7.562;2023-04-01T11:37:14;4.60;;;2.33;;
50219;SDS011;36110;51.536;7.562;2023-04-01T11:45:15;2.90;;;2.30;;
50219;SDS011;36110;51.536;7.562;2023-04-01T11:58:36;2.47;;;2.28;;
50219;SDS011;36110;51.536;7.562;2023-04-01T12:04:46;3.17;;;2.20;;
50219;SDS011;36110;51.536;7.562;2023-04-01T12:12:35;2.03;;;1.83;;
50219;SDS011;36110;51.536;7.562;2023-04-01T12:20:54;4.88;;;2.17;;
50219;SDS011;36110;51.536;7.562;2023-04-01T12:37:06;4.75;;;3.55;;
50219;SDS011;36110;51.536;7.562;2023-04-01T12:45:32;4.53;;;2.05;;
50219;SDS011;36110;51.536;7.562;2023-04-01T12:50:38;3.97;;;2.83;;
50219;SDS011;36110;51.536;7.562;2023-04-01T12:56:32;2.20;;;2.10;;
50219;SDS011;36110;51.536;7.562;2023-04-01T13:01:59;4.88;;;2.60;;
50219;SDS011;36110;51.536;7.562;2023-04-01T13:07:26;2.15;;;1.80;;
50219;SDS011;36110;51.536;7.562;2023-04-01T13:18:03;2.42;;;2.25;;
50219;SDS011;36110;51.536;7.562;2023-04-01T13:20:40;3.67;;;2.50;;
50219;SDS011;36110;51.536;7.562;2023-04-01T13:28:25;2.90;;;1.83;;
50219;SDS011;36110;51.536;7.562;2023-04-01T13:30:59;2.30;;;2.13;;
50219;SDS011;36110;51.536;7.562;2023-04-01T13:44:45;4.40;;;3.75;;
50219;SDS011;36110;51.536;7.562;2023-04-01T13:58:35;4.95;;;2.75;;
50219;SDS011;36110;51.536;7.562;2023-04-01T14:01:15;2.25;;;2.05;;
50219;SDS011;36110;51.536;7.562;2023-04-01T14:04:07;4.85;;;4.15;;
50219;SDS011;36110;51.536;7.562;2023-04-01T14:21:00;6.95;;;4.25;;
50219;SDS011;36110;51.536;7.562;2023-04-01T14:29:15;3.28;;;3.08;;
50219;SDS011;36110;51.536;7.562;2023-04-01T14:34:37;3.30;;;2.67;;
50219;SDS011;36110;51.536;7.562;2023-04-01T14:48:28;2.50;;;2.30;;
50219;SDS011;36110;51.536;7.562;2023-04-01T14:51:01;3.13;;;2.78;;
50219;SDS011;36110;51.536;7.562;2023-04-01T14:53:30;2.03;;;1.92;;
50219;SDS011;36110;51.536;7.562;2023-04-01T14:55:59;2.92;;;2.70;;
50219;SDS011;36110;51.536;7.562;2023-04-01T15:07:02;2.85;;;2.60;;
50219;SDS011;36110;51.536;7.562;2023-04-01T15:09:41;5.50;;;2.22;;
50219;SDS011;36110;51.536;7.562;2023-04-01T15:23:06;2.15;;;2.05;;
50219;SDS011;36110;51.536;7.562;2023-04-01T15:25:45;2.33;;;2.10;;
50219;SDS011;36110;51.536;7.562;2023-04-01T15:28:47;2.40;;;2.20;;
50219;SDS011;36110;51.536;7.562;2023-04-01T15:36:57;2.90;;;2.67;;
50219;SDS011;36110;51.536;7.562;2023-04-01T15:39:36;3.53;;;3.22;;
50219;SDS011;36110;51.536;7.562;2023-04-01T15:51:02;3.08;;;2.85;;
50219;SDS011;36110;51.536;7.562;2023-04-01T15:53:44;5.18;;;4.07;;
50219;SDS011;36110;51.536;7.562;2023-04-01T15:59:41;9.07;;;7.05;;
50219;SDS011;36110;51.536;7.562;2023-04-01T16:02:22;3.22;;;2.88;;
50219;SDS011;36110;51.536;7.562;2023-04-01T16:15:58;6.60;;;5.93;;
50219;SDS011;36110;51.536;7.562;2023-04-01T16:21:02;2.10;;;2.00;;
50219;SDS011;36110;51.536;7.562;2023-04-01T16:23:39;2.33;;;2.10;;
50219;SDS011;36110;51.536;7.562;2023-04-01T16:26:32;2.70;;;2.50;;
50219;SDS011;36110;51.536;7.562;2023-04-01T16:32:02;5.10;;;4.35;;
50219;SDS011;36110;51.536;7.562;2023-04-01T16:37:37;3.15;;;2.50;;
50219;SDS011;36110;51.536;7.562;2023-04-01T16:40:22;4.95;;;4.45;;
50219;SDS011;36110;51.536;7.562;2023-04-01T16:45:35;3.08;;;2.80;;
50219;SDS011;36110;51.536;7.562;2023-04-01T16:53:31;10.10;;;9.07;;
50219;SDS011;36110;51.536;7.562;2023-04-01T17:01:04;2.50;;;2.30;;
50219;SDS011;36110;51.536;7.562;2023-04-01T17:03:33;3.47;;;3.20;;
50219;SDS011;36110;51.536;7.562;2023-04-01T17:06:03;3.67;;;3.38;;
50219;SDS011;36110;51.536;7.562;2023-04-01T17:11:16;2.40;;;2.20;;
50219;SDS011;36110;51.536;7.562;2023-04-01T17:16:41;5.10;;;3.65;;
50219;SDS011;36110;51.536;7.562;2023-04-01T17:22:15;4.43;;;4.07;;
50219;SDS011;36110;51.536;7.562;2023-04-01T17:33:27;4.32;;;2.67;;
50219;SDS011;36110;51.536;7.562;2023-04-01T17:39:01;6.32;;;5.63;;
50219;SDS011;36110;51.536;7.562;2023-04-01T17:45:09;6.25;;;5.63;;
50219;SDS011;36110;51.536;7.562;2023-04-01T17:52:39;5.82;;;4.80;;
50219;SDS011;36110;51.536;7.562;2023-04-01T17:58:13;2.90;;;2.70;;
50219;SDS011;36110;51.536;7.562;2023-04-01T18:00:50;4.03;;;3.70;;
50219;SDS011;36110;51.536;7.562;2023-04-01T18:08:56;5.63;;;5.13;;
50219;SDS011;36110;51.536;7.562;2023-04-01T18:22:28;2.70;;;2.50;;
50219;SDS011;36110;51.536;7.562;2023-04-01T18:24:58;5.32;;;4.82;;
50219;SDS011;36110;51.536;7.562;2023-04-01T18:27:36;4.85;;;4.30;;
50219;SDS011;36110;51.536;7.562;2023-04-01T18:30:21;2.88;;;2.53;;
50219;SDS011;36110;51.536;7.562;2023-04-01T18:33:07;2.70;;;2.20;;
50219;SDS011;36110;51.536;7.562;2023-04-01T18:35:47;6.32;;;5.13;;
50219;SDS011;36110;51.536;7.562;2023-04-01T18:38:16;3.08;;;2.20;;
50219;SDS011;36110;51.536;7.562;2023-04-01T18:40:51;9.77;;;8.68;;
50219;SDS011;36110;51.536;7.562;2023-04-01T18:43:34;2.63;;;2.40;;
50219;SDS011;36110;51.536;7.562;2023-04-01T18:46:12;2.45;;;2.25;;
50219;SDS011;36110;51.536;7.562;2023-04-01T18:51:38;10.57;;;8.50;;
50219;SDS011;36110;51.536;7.562;2023-04-01T18:57:37;4.05;;;3.33;;
50219;SDS011;36110;51.536;7.562;2023-04-01T18:59:55;3.30;;;2.83;;
50219;SDS011;36110;51.536;7.562;2023-04-01T19:02:46;2.47;;;2.28;;
50219;SDS011;36110;51.536;7.562;2023-04-01T19:05:30;2.53;;;2.33;;
50219;SDS011;36110;51.536;7.562;2023-04-01T19:08:17;7.00;;;6.28;;
50219;SDS011;36110;51.536;7.562;2023-04-01T19:11:36;16.75;;;14.15;;
50219;SDS011;36110;51.536;7.562;2023-04-01T19:14:28;2.38;;;2.17;;
50219;SDS011;36110;51.536;7.562;2023-04-01T19:17:04;3.95;;;3.60;;
50219;SDS011;36110;51.536;7.562;2023-04-01T19:19:41;3.50;;;3.13;;
50219;SDS011;36110;51.536;7.562;2023-04-01T19:22:20;2.30;;;2.05;;
50219;SDS011;36110;51.536;7.562;2023-04-01T19:25:10;11.07;;;9.63;;
50219;SDS011;36110;51.536;7.562;2023-04-01T19:27:47;9.25;;;8.23;;
50219;SDS011;36110;51.536;7.562;2023-04-01T19:38:52;17.83;;;15.18;;
50219;SDS011;36110;51.536;7.562;2023-04-01T19:52:32;3.83;;;3.15;;
50219;SDS011;36110;51.536;7.562;2023-04-01T20:00:49;4.70;;;2.60;;
50219;SDS011;36110;51.536;7.562;2023-04-01T20:06:00;2.38;;;2.00;;
50219;SDS011;36110;51.536;7.562;2023-04-01T20:08:32;2.33;;;2.17;;
50219;SDS011;36110;51.536;7.562;2023-04-01T20:16:20;11.07;;;9.73;;
50219;SDS011;36110;51.536;7.562;2023-04-01T20:18:52;3.50;;;2.88;;
50219;SDS011;36110;51.536;7.562;2023-04-01T20:21:31;6.20;;;5.47;;
50219;SDS011;36110;51.536;7.562;2023-04-01T20:26:51;12.25;;;9.73;;
50219;SDS011;36110;51.536;7.562;2023-04-01T20:29:35;5.00;;;4.50;;
50219;SDS011;36110;51.536;7.562;2023-04-01T20:38:41;5.57;;;5.05;;
50219;SDS011;36110;51.536;7.562;2023-04-01T20:41:12;5.70;;;4.82;;
50219;SDS011;36110;51.536;7.562;2023-04-01T20:43:57;4.00;;;3.70;;
50219;SDS011;36110;51.536;7.562;2023-04-01T20:51:31;5.50;;;5.00;;
50219;SDS011;36110;51.536;7.562;2023-04-01T20:56:47;5.50;;;5.00;;
50219;SDS011;36110;51.536;7.562;2023-04-01T21:02:20;5.57;;;5.05;;
50219;SDS011;36110;51.536;7.562;2023-04-01T21:07:50;6.15;;;5.65;;
50219;SDS011;36110;51.536;7.562;2023-04-01T21:15:50;6.43;;;5.35;;
50219;SDS011;36110;51.536;7.562;2023-04-01T21:18:49;6.50;;;5.82;;
50219;SDS011;36110;51.536;7.562;2023-04-01T21:21:40;5.22;;;4.72;;
50219;SDS011;36110;51.536;7.562;2023-04-01T21:26:40;5.53;;;5.03;;
50219;SDS011;36110;51.536;7.562;2023-04-01T21:32:19;5.20;;;4.80;;
50219;SDS011;36110;51.536;7.562;2023-04-01T21:35:11;5.40;;;4.68;;
50219;SDS011;36110;51.536;7.562;2023-04-01T21:40:42;4.63;;;4.15;;
50219;SDS011;36110;51.536;7.562;2023-04-01T21:51:03;5.82;;;4.88;;
50219;SDS011;36110;51.536;7.562;2023-04-01T21:59:32;3.92;;;3.63;;
50219;SDS011;36110;51.536;7.562;2023-04-01T22:05:07;4.53;;;4.22;;
50219;SDS011;36110;51.536;7.562;2023-04-01T22:13:02;4.70;;;3.80;;
50219;SDS011;36110;51.536;7.562;2023-04-01T22:18:33;3.53;;;3.22;;
50219;SDS011;36110;51.536;7.562;2023-04-01T22:26:55;4.53;;;4.03;;
50219;SDS011;36110;51.536;7.562;2023-04-01T22:32:02;3.78;;;3.47;;
50219;SDS011;36110;51.536;7.562;2023-04-01T22:34:43;4.30;;;4.00;;
50219;SDS011;36110;51.536;7.562;2023-04-01T22:42:53;5.47;;;4.95;;
50219;SDS011;36110;51.536;7.562;2023-04-01T22:53:46;4.07;;;3.78;;
50219;SDS011;36110;51.536;7.562;2023-04-01T22:56:36;4.32;;;3.97;;
50219;SDS011;36110;51.536;7.562;2023-04-01T22:59:08;4.40;;;4.10;;
50219;SDS011;36110;51.536;7.562;2023-04-01T23:01:45;4.07;;;3.78;;
50219;SDS011;36110;51.536;7.562;2023-04-01T23:04:45;6.18;;;3.58;;
50219;SDS011;36110;51.536;7.562;2023-04-01T23:07:38;3.92;;;3.63;;
50219;SDS011;36110;51.536;7.562;2023-04-01T23:10:27;3.42;;;3.05;;
50219;SDS011;36110;51.536;7.562;2023-04-01T23:12:58;3.80;;;3.50;;
50219;SDS011;36110;51.536;7.562;2023-04-01T23:15:24;3.67;;;3.38;;
50219;SDS011;36110;51.536;7.562;2023-04-01T23:18:10;3.30;;;3.10;;
50219;SDS011;36110;51.536;7.562;2023-04-01T23:23:33;4.07;;;3.70;;
50219;SDS011;36110;51.536;7.562;2023-04-01T23:26:12;4.10;;;3.80;;
50219;SDS011;36110;51.536;7.562;2023-04-01T23:28:53;4.90;;;4.50;;
50219;SDS011;36110;51.536;7.562;2023-04-01T23:31:30;3.55;;;3.30;;
50219;SDS011;36110;51.536;7.562;2023-04-01T23:34:02;4.28;;;3.88;;
50219;SDS011;36110;51.536;7.562;2023-04-01T23:36:30;3.67;;;3.38;;
50219;SDS011;36110;51.536;7.562;2023-04-01T23:38:56;5.28;;;3.22;;
50219;SDS011;36110;51.536;7.562;2023-04-01T23:41:27;8.18;;;4.78;;
50219;SDS011;36110;51.536;7.562;2023-04-01T23:44:05;4.68;;;4.25;;
50219;SDS011;36110;51.536;7.562;2023-04-01T23:46:33;4.78;;;4.03;;
50219;SDS011;36110;51.536;7.562;2023-04-01T23:49:00;4.10;;;3.80;;
50219;SDS011;36110;51.536;7.562;2023-04-01T23:51:26;4.07;;;3.72;;
50219;SDS011;36110;51.536;7.562;2023-04-01T23:54:29;3.90;;;3.60;;
50219;SDS011;36110;51.536;7.562;2023-04-01T23:56:53;3.75;;;3.40;;
50219;SDS011;36110;51.536;7.562;2023-04-01T23:59:24;3.88;;;3.58;;
